Time,TemperatureF,DewpointF,PressureIn,WindDirection,WindDirectionDegrees,WindSpeedMPH,WindSpeedGustMPH,Humidity,HourlyPrecipIn,Conditions,Clouds,dailyrainin,SoftwareType,DateUTC
2013-11-02 00:01:00,58.9,55.4,29.45,North,0,0.0,0.0,88,0.00,,,0.00,Weather8,2013-11-02 04:01:00,
2013-11-02 00:02:00,58.9,55.4,29.45,North,0,0.0,0.0,88,0.00,,,0.00,Weather8,2013-11-02 04:02:00,
2013-11-02 00:03:00,58.9,55.4,29.45,North,0,0.0,0.0,88,0.00,,,0.00,Weather8,2013-11-02 04:03:00,
2013-11-02 00:05:00,58.9,55.4,29.45,North,0,0.0,0.0,88,0.00,,,0.00,Weather8,2013-11-02 04:05:00,
2013-11-02 00:10:00,58.9,55.4,29.45,North,0,0.0,0.0,88,0.00,,,0.00,Weather8,2013-11-02 04:10:00,
2013-11-02 00:15:00,58.9,55.4,29.45,North,0,0.0,0.0,88,0.00,,,0.00,Weather8,2013-11-02 04:15:00,
2013-11-02 00:20:00,58.9,55.4,29.45,North,0,0.0,0.0,88,0.00,,,0.00,Weather8,2013-11-02 04:20:00,
2013-11-02 00:25:00,58.9,55.4,29.45,North,0,0.0,0.0,88,0.00,,,0.00,Weather8,2013-11-02 04:25:00,
2013-11-02 00:30:00,58.9,55.4,29.45,North,0,0.0,0.0,88,0.00,,,0.00,Weather8,2013-11-02 04:30:00,
2013-11-02 00:35:00,58.1,54.6,29.47,SSW,202,0.2,0.2,88,0.00,,,0.00,Weather8,2013-11-02 04:35:00,
2013-11-02 00:40:00,58.1,54.6,29.47,SSW,202,0.2,0.2,88,0.00,,,0.00,Weather8,2013-11-02 04:40:00,
2013-11-02 00:45:00,58.1,54.6,29.47,SSW,202,0.2,0.2,88,0.00,,,0.00,Weather8,2013-11-02 04:45:00,
2013-11-02 00:50:00,58.1,54.6,29.47,SSW,202,0.2,0.2,88,0.00,,,0.00,Weather8,2013-11-02 04:50:00,
2013-11-02 00:55:00,58.1,54.6,29.47,SSW,202,0.2,0.2,88,0.00,,,0.00,Weather8,2013-11-02 04:55:00,
2013-11-02 01:00:00,58.1,54.6,29.47,SSW,202,0.2,0.2,88,0.00,,,0.00,Weather8,2013-11-02 05:00:00,
2013-11-02 08:24:00,53.5,50.3,29.47,SSW,202,0.0,0.0,89,0.00,,,0.00,Weather8,2013-11-02 12:24:00,
2013-11-02 08:29:00,53.3,50.1,29.47,SSW,202,0.0,0.0,89,0.00,,,0.00,Weather8,2013-11-02 12:29:00,
2013-11-02 08:34:00,53.5,50.3,29.47,SSW,202,0.0,0.0,89,0.00,,,0.00,Weather8,2013-11-02 12:34:00,
2013-11-02 08:39:00,53.5,50.3,29.47,SSW,202,0.0,0.0,89,0.00,,,0.00,Weather8,2013-11-02 12:39:00,
2013-11-02 08:44:00,53.5,50.3,29.47,SSW,202,0.0,0.0,89,0.00,,,0.00,Weather8,2013-11-02 12:44:00,
2013-11-02 08:49:00,53.5,50.3,29.47,SSW,202,0.0,0.0,89,0.00,,,0.00,Weather8,2013-11-02 12:49:00,
2013-11-02 08:54:00,53.5,50.3,29.47,SSW,202,0.0,0.0,89,0.00,,,0.00,Weather8,2013-11-02 12:54:00,
2013-11-02 08:59:00,53.5,50.3,29.47,SSW,202,0.0,0.0,89,0.00,,,0.00,Weather8,2013-11-02 12:59:00,
2013-11-02 09:04:00,53.6,50.5,29.47,SSW,202,0.0,0.0,89,0.00,,,0.00,Weather8,2013-11-02 13:04:00,
2013-11-02 09:09:00,53.6,50.5,29.47,SSW,202,0.0,0.0,89,0.00,,,0.00,Weather8,2013-11-02 13:09:00,
2013-11-02 09:14:00,53.6,50.5,29.47,SSW,202,0.0,0.0,89,0.00,,,0.00,Weather8,2013-11-02 13:14:00,
2013-11-02 09:19:00,53.6,50.5,29.47,SSW,202,0.0,0.0,89,0.00,,,0.00,Weather8,2013-11-02 13:19:00,
2013-11-02 09:24:00,53.6,50.5,29.47,SSW,202,0.0,0.0,89,0.00,,,0.00,Weather8,2013-11-02 13:24:00,
2013-11-02 09:29:00,53.6,50.5,29.47,SSW,202,0.0,0.0,89,0.00,,,0.00,Weather8,2013-11-02 13:29:00,
2013-11-02 09:34:00,55.6,52.1,29.48,North,0,0.4,0.4,88,0.00,,,0.00,Weather8,2013-11-02 13:34:00,
2013-11-02 09:39:00,55.6,52.1,29.48,North,0,0.4,0.4,88,0.00,,,0.00,Weather8,2013-11-02 13:39:00,
2013-11-02 09:44:00,55.6,52.1,29.48,North,0,0.4,0.4,88,0.00,,,0.00,Weather8,2013-11-02 13:44:00,
2013-11-02 09:49:00,55.6,52.1,29.48,North,0,0.4,0.4,88,0.00,,,0.00,Weather8,2013-11-02 13:49:00,
2013-11-02 09:54:00,55.6,52.1,29.48,North,0,0.4,0.4,88,0.00,,,0.00,Weather8,2013-11-02 13:54:00,
2013-11-02 10:21:00,59.8,56.3,29.46,NE,45,2.5,2.5,88,0.00,,,0.00,Weather8,2013-11-02 14:21:00,
2013-11-02 10:26:00,60.1,56.6,29.46,NNE,22,1.6,2.5,88,0.00,,,0.00,Weather8,2013-11-02 14:26:00,
2013-11-02 10:31:00,60.5,57.0,29.46,East,90,2.0,2.5,88,0.00,,,0.00,Weather8,2013-11-02 14:31:00,
2013-11-02 10:36:00,61.0,57.5,29.45,SE,135,0.4,2.0,88,0.00,,,0.00,Weather8,2013-11-02 14:36:00,
2013-11-02 10:41:00,61.0,57.5,29.45,SE,135,0.4,2.0,88,0.00,,,0.00,Weather8,2013-11-02 14:41:00,
2013-11-02 10:46:00,61.0,57.5,29.45,SE,135,0.4,0.9,88,0.00,,,0.00,Weather8,2013-11-02 14:46:00,
2013-11-02 10:51:00,61.0,57.5,29.45,SE,135,0.4,0.4,88,0.00,,,0.00,Weather8,2013-11-02 14:51:00,
2013-11-02 10:56:00,61.0,57.5,29.45,SE,135,0.4,0.4,88,0.00,,,0.00,Weather8,2013-11-02 14:56:00,
2013-11-02 11:01:00,63.4,58.4,29.45,NE,45,2.2,2.2,84,0.00,,,0.00,Weather8,2013-11-02 15:01:00,
2013-11-02 11:06:00,63.4,58.4,29.45,NE,45,2.2,2.2,84,0.00,,,0.00,Weather8,2013-11-02 15:06:00,
2013-11-02 11:11:00,63.4,58.4,29.45,NE,45,2.2,2.2,84,0.00,,,0.00,Weather8,2013-11-02 15:11:00,
2013-11-02 11:16:00,63.4,58.4,29.45,NE,45,2.2,2.2,84,0.00,,,0.00,Weather8,2013-11-02 15:16:00,
2013-11-02 11:21:00,63.4,58.4,29.45,NE,45,2.2,2.2,84,0.00,,,0.00,Weather8,2013-11-02 15:21:00,
2013-11-02 11:26:00,63.4,58.4,29.45,NE,45,2.2,2.2,84,0.00,,,0.00,Weather8,2013-11-02 15:26:00,
2013-11-02 11:31:00,65.5,59.2,29.45,NNW,337,1.6,2.2,80,0.00,,,0.00,Weather8,2013-11-02 15:31:00,
2013-11-02 11:36:00,65.5,59.2,29.45,NNW,337,1.6,2.2,80,0.00,,,0.00,Weather8,2013-11-02 15:36:00,
2013-11-02 11:41:00,65.5,59.2,29.45,NNW,337,1.6,2.2,80,0.00,,,0.00,Weather8,2013-11-02 15:41:00,
2013-11-02 11:46:00,65.5,59.2,29.45,NNW,337,1.6,1.6,80,0.00,,,0.00,Weather8,2013-11-02 15:46:00,
2013-11-02 11:51:00,65.5,59.2,29.45,NNW,337,1.6,1.6,80,0.00,,,0.00,Weather8,2013-11-02 15:51:00,
2013-11-02 11:56:00,65.5,59.2,29.45,NNW,337,1.6,1.6,80,0.00,,,0.00,Weather8,2013-11-02 15:56:00,
2013-11-02 12:01:00,66.6,58.1,29.46,NNE,22,1.1,1.6,74,0.00,,,0.00,Weather8,2013-11-02 16:01:00,
2013-11-02 12:06:00,66.6,58.1,29.46,NNE,22,1.1,1.6,74,0.00,,,0.00,Weather8,2013-11-02 16:06:00,
2013-11-02 12:11:00,66.6,58.1,29.46,NNE,22,1.1,1.6,74,0.00,,,0.00,Weather8,2013-11-02 16:11:00,
2013-11-02 12:16:00,66.6,58.1,29.46,NNE,22,1.1,1.1,74,0.00,,,0.00,Weather8,2013-11-02 16:16:00,
2013-11-02 12:21:00,66.6,58.1,29.46,NNE,22,1.1,1.1,74,0.00,,,0.00,Weather8,2013-11-02 16:21:00,
2013-11-02 12:26:00,66.6,58.1,29.46,NNE,22,1.1,1.1,74,0.00,,,0.00,Weather8,2013-11-02 16:26:00,
2013-11-02 12:31:00,66.4,58.2,29.45,SSW,202,2.5,2.5,75,0.00,,,0.00,Weather8,2013-11-02 16:31:00,
2013-11-02 12:36:00,66.4,58.2,29.45,SSW,202,2.5,2.5,75,0.00,,,0.00,Weather8,2013-11-02 16:36:00,
2013-11-02 12:41:00,66.4,58.2,29.45,SSW,202,2.5,2.5,75,0.00,,,0.00,Weather8,2013-11-02 16:41:00,
2013-11-02 12:46:00,66.4,58.2,29.45,SSW,202,2.5,2.5,75,0.00,,,0.00,Weather8,2013-11-02 16:46:00,
2013-11-02 12:51:00,66.4,58.2,29.45,SSW,202,2.5,2.5,75,0.00,,,0.00,Weather8,2013-11-02 16:51:00,
2013-11-02 12:56:00,66.4,58.2,29.45,SSW,202,2.5,2.5,75,0.00,,,0.00,Weather8,2013-11-02 16:56:00,
2013-11-02 13:01:00,68.2,59.7,29.45,East,90,2.0,2.5,74,0.00,,,0.00,Weather8,2013-11-02 17:01:00,
2013-11-02 13:06:00,68.2,59.7,29.45,East,90,2.0,2.5,74,0.00,,,0.00,Weather8,2013-11-02 17:06:00,
2013-11-02 13:11:00,68.2,59.7,29.45,East,90,2.0,2.5,74,0.00,,,0.00,Weather8,2013-11-02 17:11:00,
2013-11-02 13:16:00,68.2,59.7,29.45,East,90,2.0,2.0,74,0.00,,,0.00,Weather8,2013-11-02 17:16:00,
2013-11-02 13:21:00,68.2,59.7,29.45,East,90,2.0,2.0,74,0.00,,,0.00,Weather8,2013-11-02 17:21:00,
2013-11-02 13:26:00,68.2,59.7,29.45,East,90,2.0,2.0,74,0.00,,,0.00,Weather8,2013-11-02 17:26:00,
2013-11-02 13:31:00,68.4,59.0,29.43,ENE,67,2.2,2.2,72,0.00,,,0.00,Weather8,2013-11-02 17:31:00,
2013-11-02 13:36:00,68.4,59.0,29.43,ENE,67,2.2,2.2,72,0.00,,,0.00,Weather8,2013-11-02 17:36:00,
2013-11-02 13:41:00,68.4,59.0,29.43,ENE,67,2.2,2.2,72,0.00,,,0.00,Weather8,2013-11-02 17:41:00,
2013-11-02 13:46:00,68.4,59.0,29.43,ENE,67,2.2,2.2,72,0.00,,,0.00,Weather8,2013-11-02 17:46:00,
2013-11-02 13:51:00,68.4,59.0,29.43,ENE,67,2.2,2.2,72,0.00,,,0.00,Weather8,2013-11-02 17:51:00,
2013-11-02 13:56:00,68.4,59.0,29.43,ENE,67,2.2,2.2,72,0.00,,,0.00,Weather8,2013-11-02 17:56:00,
2013-11-02 14:01:00,68.0,58.0,29.43,East,90,0.9,2.2,70,0.00,,,0.00,Weather8,2013-11-02 18:01:00,
2013-11-02 14:06:00,68.0,58.0,29.43,East,90,0.9,2.2,70,0.00,,,0.00,Weather8,2013-11-02 18:06:00,
2013-11-02 14:11:00,68.0,58.0,29.43,East,90,0.9,2.2,70,0.00,,,0.00,Weather8,2013-11-02 18:11:00,
2013-11-02 14:16:00,68.0,58.0,29.43,East,90,0.9,0.9,70,0.00,,,0.00,Weather8,2013-11-02 18:16:00,
2013-11-02 14:21:00,68.0,58.0,29.43,East,90,0.9,0.9,70,0.00,,,0.00,Weather8,2013-11-02 18:21:00,
2013-11-02 14:26:00,68.0,58.0,29.43,East,90,0.9,0.9,70,0.00,,,0.00,Weather8,2013-11-02 18:26:00,
2013-11-02 14:31:00,67.0,57.2,29.43,SE,135,1.6,1.6,71,0.00,,,0.00,Weather8,2013-11-02 18:31:00,
2013-11-02 14:36:00,67.0,57.2,29.43,SE,135,1.6,1.6,71,0.00,,,0.00,Weather8,2013-11-02 18:36:00,
2013-11-02 14:41:00,67.0,57.2,29.43,SE,135,1.6,1.6,71,0.00,,,0.00,Weather8,2013-11-02 18:41:00,
2013-11-02 14:46:00,67.0,57.2,29.43,SE,135,1.6,1.6,71,0.00,,,0.00,Weather8,2013-11-02 18:46:00,
2013-11-02 14:51:00,67.0,57.2,29.43,SE,135,1.6,1.6,71,0.00,,,0.00,Weather8,2013-11-02 18:51:00,
2013-11-02 14:56:00,67.0,57.2,29.43,SE,135,1.6,1.6,71,0.00,,,0.00,Weather8,2013-11-02 18:56:00,
2013-11-02 15:01:00,66.6,56.5,29.43,SSW,202,0.7,1.6,70,0.00,,,0.00,Weather8,2013-11-02 19:01:00,
2013-11-02 15:06:00,66.6,56.5,29.43,SSW,202,0.7,1.6,70,0.00,,,0.00,Weather8,2013-11-02 19:06:00,
2013-11-02 15:11:00,66.6,56.5,29.43,SSW,202,0.7,1.6,70,0.00,,,0.00,Weather8,2013-11-02 19:11:00,
2013-11-02 15:16:00,66.6,56.5,29.43,SSW,202,0.7,0.7,70,0.00,,,0.00,Weather8,2013-11-02 19:16:00,
2013-11-02 15:21:00,66.6,56.5,29.43,SSW,202,0.7,0.7,70,0.00,,,0.00,Weather8,2013-11-02 19:21:00,
2013-11-02 15:26:00,66.6,56.5,29.43,SSW,202,0.7,0.7,70,0.00,,,0.00,Weather8,2013-11-02 19:26:00,
2013-11-02 15:31:00,65.7,56.4,29.43,SE,135,0.9,0.9,72,0.00,,,0.00,Weather8,2013-11-02 19:31:00,
2013-11-02 15:36:00,65.7,56.4,29.43,SE,135,0.9,0.9,72,0.00,,,0.00,Weather8,2013-11-02 19:36:00,
2013-11-02 15:41:00,65.7,56.4,29.43,SE,135,0.9,0.9,72,0.00,,,0.00,Weather8,2013-11-02 19:41:00,
2013-11-02 15:46:00,65.7,56.4,29.43,SE,135,0.9,0.9,72,0.00,,,0.00,Weather8,2013-11-02 19:46:00,
2013-11-02 15:51:00,65.7,56.4,29.43,SE,135,0.9,0.9,72,0.00,,,0.00,Weather8,2013-11-02 19:51:00,
2013-11-02 15:56:00,65.7,56.4,29.43,SE,135,0.9,0.9,72,0.00,,,0.00,Weather8,2013-11-02 19:56:00,
2013-11-02 16:01:00,65.2,56.3,29.43,South,180,0.0,0.9,73,0.00,,,0.00,Weather8,2013-11-02 20:01:00,
2013-11-02 16:06:00,65.2,56.3,29.43,South,180,0.0,0.9,73,0.00,,,0.00,Weather8,2013-11-02 20:06:00,
2013-11-02 16:11:00,65.2,56.3,29.43,South,180,0.0,0.9,73,0.00,,,0.00,Weather8,2013-11-02 20:11:00,
2013-11-02 16:16:00,65.2,56.3,29.43,South,180,0.0,0.0,73,0.00,,,0.00,Weather8,2013-11-02 20:16:00,
2013-11-02 16:21:00,65.2,56.3,29.43,South,180,0.0,0.0,73,0.00,,,0.00,Weather8,2013-11-02 20:21:00,
2013-11-02 16:26:00,65.2,56.3,29.43,South,180,0.0,0.0,73,0.00,,,0.00,Weather8,2013-11-02 20:26:00,
2013-11-02 16:31:00,64.8,56.0,29.43,SSE,157,0.4,0.4,73,0.00,,,0.00,Weather8,2013-11-02 20:31:00,
2013-11-02 16:36:00,64.8,56.0,29.43,SSE,157,0.4,0.4,73,0.00,,,0.00,Weather8,2013-11-02 20:36:00,
2013-11-02 16:41:00,64.8,56.0,29.43,SSE,157,0.4,0.4,73,0.00,,,0.00,Weather8,2013-11-02 20:41:00,
2013-11-02 16:46:00,64.8,56.0,29.43,SSE,157,0.4,0.4,73,0.00,,,0.00,Weather8,2013-11-02 20:46:00,
2013-11-02 16:51:00,64.8,56.0,29.43,SSE,157,0.4,0.4,73,0.00,,,0.00,Weather8,2013-11-02 20:51:00,
2013-11-02 16:56:00,64.8,56.0,29.43,SSE,157,0.4,0.4,73,0.00,,,0.00,Weather8,2013-11-02 20:56:00,
2013-11-02 17:01:00,64.1,56.0,29.44,South,180,0.0,0.4,75,0.00,,,0.00,Weather8,2013-11-02 21:01:00,
2013-11-02 17:06:00,64.1,56.0,29.44,South,180,0.0,0.4,75,0.00,,,0.00,Weather8,2013-11-02 21:06:00,
2013-11-02 17:11:00,64.1,56.0,29.44,South,180,0.0,0.4,75,0.00,,,0.00,Weather8,2013-11-02 21:11:00,
2013-11-02 17:16:00,64.1,56.0,29.44,South,180,0.0,0.0,75,0.00,,,0.00,Weather8,2013-11-02 21:16:00,
2013-11-02 17:21:00,64.1,56.0,29.44,South,180,0.0,0.0,75,0.00,,,0.00,Weather8,2013-11-02 21:21:00,
2013-11-02 17:26:00,64.1,56.0,29.44,South,180,0.0,0.0,75,0.00,,,0.00,Weather8,2013-11-02 21:26:00,
2013-11-02 17:31:00,63.4,55.6,29.45,WNW,292,0.0,0.0,76,0.00,,,0.00,Weather8,2013-11-02 21:31:00,
2013-11-02 17:36:00,63.4,55.6,29.45,WNW,292,0.0,0.0,76,0.00,,,0.00,Weather8,2013-11-02 21:36:00,
2013-11-02 17:41:00,63.4,55.6,29.45,WNW,292,0.0,0.0,76,0.00,,,0.00,Weather8,2013-11-02 21:41:00,
2013-11-02 17:46:00,63.4,55.6,29.45,WNW,292,0.0,0.0,76,0.00,,,0.00,Weather8,2013-11-02 21:46:00,
2013-11-02 17:51:00,63.4,55.6,29.45,WNW,292,0.0,0.0,76,0.00,,,0.00,Weather8,2013-11-02 21:51:00,
2013-11-02 17:56:00,63.4,55.6,29.45,WNW,292,0.0,0.0,76,0.00,,,0.00,Weather8,2013-11-02 21:56:00,
2013-11-02 18:01:00,62.8,49.6,29.46,NNW,337,2.5,2.5,62,0.00,,,0.00,Weather8,2013-11-02 22:01:00,
2013-11-02 18:06:00,62.8,49.6,29.46,NNW,337,2.5,2.5,62,0.00,,,0.00,Weather8,2013-11-02 22:06:00,
2013-11-02 18:11:00,62.8,49.6,29.46,NNW,337,2.5,2.5,62,0.00,,,0.00,Weather8,2013-11-02 22:11:00,
2013-11-02 18:16:00,62.8,49.6,29.46,NNW,337,2.5,2.5,62,0.00,,,0.00,Weather8,2013-11-02 22:16:00,
2013-11-02 18:21:00,62.8,49.6,29.46,NNW,337,2.5,2.5,62,0.00,,,0.00,Weather8,2013-11-02 22:21:00,
2013-11-02 18:26:00,62.8,49.6,29.46,NNW,337,2.5,2.5,62,0.00,,,0.00,Weather8,2013-11-02 22:26:00,
2013-11-02 18:31:00,62.6,48.6,29.50,NNW,337,3.1,3.1,60,0.00,,,0.00,Weather8,2013-11-02 22:31:00,
2013-11-02 18:36:00,62.6,48.6,29.50,NNW,337,3.1,3.1,60,0.00,,,0.00,Weather8,2013-11-02 22:36:00,
2013-11-02 18:41:00,62.6,48.6,29.50,NNW,337,3.1,3.1,60,0.00,,,0.00,Weather8,2013-11-02 22:41:00,
2013-11-02 18:46:00,62.6,48.6,29.50,NNW,337,3.1,3.1,60,0.00,,,0.00,Weather8,2013-11-02 22:46:00,
2013-11-02 18:51:00,62.6,48.6,29.50,NNW,337,3.1,3.1,60,0.00,,,0.00,Weather8,2013-11-02 22:51:00,
2013-11-02 18:56:00,62.6,48.6,29.50,NNW,337,3.1,3.1,60,0.00,,,0.00,Weather8,2013-11-02 22:56:00,
2013-11-02 19:01:00,61.9,48.8,29.51,North,0,1.3,3.1,62,0.00,,,0.00,Weather8,2013-11-02 23:01:00,
2013-11-02 19:06:00,61.9,48.8,29.51,North,0,1.3,3.1,62,0.00,,,0.00,Weather8,2013-11-02 23:06:00,
2013-11-02 19:11:00,61.9,48.8,29.51,North,0,1.3,3.1,62,0.00,,,0.00,Weather8,2013-11-02 23:11:00,
2013-11-02 19:16:00,61.9,48.8,29.51,North,0,1.3,1.3,62,0.00,,,0.00,Weather8,2013-11-02 23:16:00,
2013-11-02 19:21:00,61.9,48.8,29.51,North,0,1.3,1.3,62,0.00,,,0.00,Weather8,2013-11-02 23:21:00,
2013-11-02 19:26:00,61.9,48.8,29.51,North,0,1.3,1.3,62,0.00,,,0.00,Weather8,2013-11-02 23:26:00,
2013-11-02 19:31:00,60.7,48.4,29.52,North,0,2.7,2.7,64,0.00,,,0.00,Weather8,2013-11-02 23:31:00,
2013-11-02 19:36:00,60.7,48.4,29.52,North,0,2.7,2.7,64,0.00,,,0.00,Weather8,2013-11-02 23:36:00,
2013-11-02 19:41:00,60.7,48.4,29.52,North,0,2.7,2.7,64,0.00,,,0.00,Weather8,2013-11-02 23:41:00,
2013-11-02 19:46:00,60.7,48.4,29.52,North,0,2.7,2.7,64,0.00,,,0.00,Weather8,2013-11-02 23:46:00,
2013-11-02 19:51:00,60.7,48.4,29.52,North,0,2.7,2.7,64,0.00,,,0.00,Weather8,2013-11-02 23:51:00,
2013-11-02 19:56:00,60.7,48.4,29.52,North,0,2.7,2.7,64,0.00,,,0.00,Weather8,2013-11-02 23:56:00,
2013-11-02 20:01:00,59.4,46.4,29.53,NW,315,2.5,2.7,62,0.00,,,0.00,Weather8,2013-11-03 00:01:00,
2013-11-02 20:06:00,59.4,46.4,29.53,NW,315,2.5,2.7,62,0.00,,,0.00,Weather8,2013-11-03 00:06:00,
2013-11-02 20:11:00,59.4,46.4,29.53,NW,315,2.5,2.7,62,0.00,,,0.00,Weather8,2013-11-03 00:11:00,
2013-11-02 20:16:00,59.4,46.4,29.53,NW,315,2.5,2.5,62,0.00,,,0.00,Weather8,2013-11-03 00:16:00,
2013-11-02 20:21:00,59.4,46.4,29.53,NW,315,2.5,2.5,62,0.00,,,0.00,Weather8,2013-11-03 00:21:00,
2013-11-02 20:26:00,59.4,46.4,29.53,NW,315,2.5,2.5,62,0.00,,,0.00,Weather8,2013-11-03 00:26:00,
2013-11-02 20:31:00,59.0,45.2,29.55,North,0,2.7,2.7,60,0.00,,,0.00,Weather8,2013-11-03 00:31:00,
2013-11-02 20:36:00,59.0,45.2,29.55,North,0,2.7,2.7,60,0.00,,,0.00,Weather8,2013-11-03 00:36:00,
2013-11-02 20:41:00,59.0,45.2,29.55,North,0,2.7,2.7,60,0.00,,,0.00,Weather8,2013-11-03 00:41:00,
2013-11-02 20:47:00,59.0,45.2,29.55,North,0,2.7,2.7,60,0.00,,,0.00,Weather8,2013-11-03 00:47:00,
2013-11-02 20:52:00,59.0,45.2,29.55,North,0,2.7,2.7,60,0.00,,,0.00,Weather8,2013-11-03 00:52:00,
2013-11-02 20:57:00,59.0,45.2,29.55,North,0,2.7,2.7,60,0.00,,,0.00,Weather8,2013-11-03 00:57:00,
2013-11-02 21:02:00,58.5,44.2,29.56,NNW,337,1.6,2.7,59,0.00,,,0.00,Weather8,2013-11-03 01:02:00,
2013-11-02 21:07:00,58.5,44.2,29.56,NNW,337,1.6,2.7,59,0.00,,,0.00,Weather8,2013-11-03 01:07:00,
2013-11-02 21:12:00,58.5,44.2,29.56,NNW,337,1.6,1.6,59,0.00,,,0.00,Weather8,2013-11-03 01:12:00,
2013-11-02 21:17:00,58.5,44.2,29.56,NNW,337,1.6,1.6,59,0.00,,,0.00,Weather8,2013-11-03 01:17:00,
2013-11-02 21:22:00,58.5,44.2,29.56,NNW,337,1.6,1.6,59,0.00,,,0.00,Weather8,2013-11-03 01:22:00,
2013-11-02 21:27:00,58.5,44.2,29.56,NNW,337,1.6,1.6,59,0.00,,,0.00,Weather8,2013-11-03 01:27:00,
2013-11-02 21:32:00,58.0,43.3,29.56,NNW,337,2.7,2.7,58,0.00,,,0.00,Weather8,2013-11-03 01:32:00,
2013-11-02 21:37:00,58.0,43.3,29.56,NNW,337,2.7,2.7,58,0.00,,,0.00,Weather8,2013-11-03 01:37:00,
2013-11-02 21:42:00,58.0,43.3,29.56,NNW,337,2.7,2.7,58,0.00,,,0.00,Weather8,2013-11-03 01:42:00,
2013-11-02 21:47:00,58.0,43.3,29.56,NNW,337,2.7,2.7,58,0.00,,,0.00,Weather8,2013-11-03 01:47:00,
2013-11-02 21:52:00,58.0,43.3,29.56,NNW,337,2.7,2.7,58,0.00,,,0.00,Weather8,2013-11-03 01:52:00,
2013-11-02 21:57:00,58.0,43.3,29.56,NNW,337,2.7,2.7,58,0.00,,,0.00,Weather8,2013-11-03 01:57:00,
2013-11-02 22:02:00,57.6,43.9,29.58,North,0,1.6,2.7,60,0.00,,,0.00,Weather8,2013-11-03 02:02:00,
2013-11-02 22:07:00,57.6,43.9,29.58,North,0,1.6,2.7,60,0.00,,,0.00,Weather8,2013-11-03 02:07:00,
2013-11-02 22:12:00,57.6,43.9,29.58,North,0,1.6,1.6,60,0.00,,,0.00,Weather8,2013-11-03 02:12:00,
2013-11-02 22:17:00,57.6,43.9,29.58,North,0,1.6,1.6,60,0.00,,,0.00,Weather8,2013-11-03 02:17:00,
2013-11-02 22:22:00,57.6,43.9,29.58,North,0,1.6,1.6,60,0.00,,,0.00,Weather8,2013-11-03 02:22:00,
2013-11-02 22:27:00,57.6,43.9,29.58,North,0,1.6,1.6,60,0.00,,,0.00,Weather8,2013-11-03 02:27:00,
2013-11-02 22:32:00,57.2,43.6,29.58,NNW,337,0.0,1.6,60,0.00,,,0.00,Weather8,2013-11-03 02:32:00,
2013-11-02 22:37:00,57.2,43.6,29.58,NNW,337,0.0,1.6,60,0.00,,,0.00,Weather8,2013-11-03 02:37:00,
2013-11-02 22:42:00,57.2,43.6,29.58,NNW,337,0.0,0.0,60,0.00,,,0.00,Weather8,2013-11-03 02:42:00,
2013-11-02 22:47:00,57.2,43.6,29.58,NNW,337,0.0,0.0,60,0.00,,,0.00,Weather8,2013-11-03 02:47:00,
2013-11-02 22:52:00,57.2,43.6,29.58,NNW,337,0.0,0.0,60,0.00,,,0.00,Weather8,2013-11-03 02:52:00,
2013-11-02 22:57:00,57.2,43.6,29.58,NNW,337,0.0,0.0,60,0.00,,,0.00,Weather8,2013-11-03 02:57:00,
2013-11-02 23:02:00,56.7,43.4,29.58,NNW,337,1.3,1.3,61,0.00,,,0.00,Weather8,2013-11-03 03:02:00,
2013-11-02 23:07:00,56.7,43.4,29.58,NNW,337,1.3,1.3,61,0.00,,,0.00,Weather8,2013-11-03 03:07:00,
2013-11-02 23:12:00,56.7,43.4,29.58,NNW,337,1.3,1.3,61,0.00,,,0.00,Weather8,2013-11-03 03:12:00,
2013-11-02 23:17:00,56.7,43.4,29.58,NNW,337,1.3,1.3,61,0.00,,,0.00,Weather8,2013-11-03 03:17:00,
2013-11-02 23:22:00,56.7,43.4,29.58,NNW,337,1.3,1.3,61,0.00,,,0.00,Weather8,2013-11-03 03:22:00,
2013-11-02 23:27:00,56.7,43.4,29.58,NNW,337,1.3,1.3,61,0.00,,,0.00,Weather8,2013-11-03 03:27:00,
2013-11-02 23:32:00,56.2,43.3,29.58,NNW,337,0.4,1.3,62,0.00,,,0.00,Weather8,2013-11-03 03:32:00,
2013-11-02 23:37:00,56.2,43.3,29.58,NNW,337,0.4,1.3,62,0.00,,,0.00,Weather8,2013-11-03 03:37:00,
2013-11-02 23:42:00,56.2,43.3,29.58,NNW,337,0.4,0.4,62,0.00,,,0.00,Weather8,2013-11-03 03:42:00,
2013-11-02 23:47:00,56.2,43.3,29.58,NNW,337,0.4,0.4,62,0.00,,,0.00,Weather8,2013-11-03 03:47:00,
2013-11-02 23:52:00,56.2,43.3,29.58,NNW,337,0.4,0.4,62,0.00,,,0.00,Weather8,2013-11-03 03:52:00,
2013-11-02 23:58:00,56.2,43.3,29.58,NNW,337,0.4,0.4,62,0.00,,,0.00,Weather8,2013-11-03 03:58:00,